sensor_id;sensor_type;location;lat;lon;timestamp;pressure;altitude;pressure_sealevel;temperature;humidity
70815;BME280;58428;49.478;10.986;2022-10-16T00:02:07;98295.88;;;16.08;100.00
70815;BME280;58428;49.478;10.986;2022-10-16T00:04:33;98298.56;;;16.05;100.00
70815;BME280;58428;49.478;10.986;2022-10-16T00:07:00;98294.66;;;16.06;100.00
70815;BME280;58428;49.478;10.986;2022-10-16T00:09:25;98296.91;;;16.00;100.00
70815;BME280;58428;49.478;10.986;2022-10-16T00:11:50;98314.44;;;15.99;100.00
70815;BME280;58428;49.478;10.986;2022-10-16T00:14:16;98320.34;;;16.01;100.00
70815;BME280;58428;49.478;10.986;2022-10-16T00:16:43;98316.50;;;16.06;100.00
70815;BME280;58428;49.478;10.986;2022-10-16T00:19:10;98325.53;;;16.10;100.00
70815;BME280;58428;49.478;10.986;2022-10-16T00:21:35;98325.63;;;16.13;100.00
70815;BME280;58428;49.478;10.986;2022-10-16T00:24:02;98309.94;;;16.10;100.00
70815;BME280;58428;49.478;10.986;2022-10-16T00:26:29;98313.84;;;16.09;100.00
70815;BME280;58428;49.478;10.986;2022-10-16T00:28:57;98316.44;;;16.02;100.00
70815;BME280;58428;49.478;10.986;2022-10-16T00:31:23;98319.97;;;16.03;100.00
70815;BME280;58428;49.478;10.986;2022-10-16T00:33:49;98323.06;;;16.01;100.00
70815;BME280;58428;49.478;10.986;2022-10-16T00:36:17;98320.44;;;16.08;100.00
70815;BME280;58428;49.478;10.986;2022-10-16T00:38:43;98320.81;;;16.07;100.00
70815;BME280;58428;49.478;10.986;2022-10-16T00:41:13;98328.63;;;16.08;100.00
70815;BME280;58428;49.478;10.986;2022-10-16T00:46:37;98321.03;;;15.98;100.00
70815;BME280;58428;49.478;10.986;2022-10-16T00:49:11;98321.47;;;16.00;100.00
70815;BME280;58428;49.478;10.986;2022-10-16T00:51:48;98316.81;;;16.01;100.00
70815;BME280;58428;49.478;10.986;2022-10-16T00:54:21;98318.91;;;15.88;100.00
70815;BME280;58428;49.478;10.986;2022-10-16T00:56:48;98320.00;;;15.84;100.00
70815;BME280;58428;49.478;10.986;2022-10-16T00:59:18;98324.00;;;15.90;100.00
70815;BME280;58428;49.478;10.986;2022-10-16T01:01:44;98327.09;;;15.88;100.00
70815;BME280;58428;49.478;10.986;2022-10-16T01:04:10;98334.06;;;15.86;100.00
70815;BME280;58428;49.478;10.986;2022-10-16T01:15:17;98332.13;;;15.86;100.00
70815;BME280;58428;49.478;10.986;2022-10-16T01:21:01;98330.78;;;15.77;100.00
70815;BME280;58428;49.478;10.986;2022-10-16T01:23:38;98335.81;;;15.75;100.00
70815;BME280;58428;49.478;10.986;2022-10-16T01:26:24;98329.56;;;15.75;100.00
70815;BME280;58428;49.478;10.986;2022-10-16T01:29:01;98332.72;;;15.77;100.00
70815;BME280;58428;49.478;10.986;2022-10-16T01:31:32;98326.06;;;15.74;100.00
70815;BME280;58428;49.478;10.986;2022-10-16T01:34:22;98330.31;;;15.72;100.00
70815;BME280;58428;49.478;10.986;2022-10-16T01:36:56;98339.19;;;15.69;100.00
70815;BME280;58428;49.478;10.986;2022-10-16T01:39:26;98338.41;;;15.68;100.00
70815;BME280;58428;49.478;10.986;2022-10-16T01:42:05;98341.91;;;15.69;100.00
70815;BME280;58428;49.478;10.986;2022-10-16T01:47:22;98343.28;;;15.78;100.00
70815;BME280;58428;49.478;10.986;2022-10-16T01:49:50;98351.38;;;15.75;100.00
70815;BME280;58428;49.478;10.986;2022-10-16T01:52:22;98352.91;;;15.72;100.00
70815;BME280;58428;49.478;10.986;2022-10-16T01:54:52;98360.22;;;15.68;100.00
70815;BME280;58428;49.478;10.986;2022-10-16T01:57:20;98361.44;;;15.71;100.00
70815;BME280;58428;49.478;10.986;2022-10-16T01:59:49;98372.06;;;15.76;100.00
70815;BME280;58428;49.478;10.986;2022-10-16T02:02:17;98365.53;;;15.80;100.00
70815;BME280;58428;49.478;10.986;2022-10-16T02:04:49;98364.75;;;15.80;100.00
70815;BME280;58428;49.478;10.986;2022-10-16T02:07:16;98363.16;;;15.79;100.00
70815;BME280;58428;49.478;10.986;2022-10-16T02:09:42;98368.59;;;15.79;100.00
70815;BME280;58428;49.478;10.986;2022-10-16T02:12:26;98366.13;;;15.70;100.00
70815;BME280;58428;49.478;10.986;2022-10-16T02:14:53;98359.50;;;15.71;100.00
70815;BME280;58428;49.478;10.986;2022-10-16T02:17:19;98365.34;;;15.70;100.00
70815;BME280;58428;49.478;10.986;2022-10-16T02:19:46;98358.34;;;15.72;100.00
70815;BME280;58428;49.478;10.986;2022-10-16T02:22:20;98357.50;;;15.68;100.00
70815;BME280;58428;49.478;10.986;2022-10-16T02:27:13;98362.97;;;15.68;100.00
70815;BME280;58428;49.478;10.986;2022-10-16T02:29:47;98360.66;;;15.70;100.00
70815;BME280;58428;49.478;10.986;2022-10-16T02:32:21;98359.06;;;15.69;100.00
70815;BME280;58428;49.478;10.986;2022-10-16T02:34:49;98358.63;;;15.67;100.00
70815;BME280;58428;49.478;10.986;2022-10-16T02:37:16;98357.50;;;15.68;100.00
70815;BME280;58428;49.478;10.986;2022-10-16T02:39:43;98356.75;;;15.71;100.00
70815;BME280;58428;49.478;10.986;2022-10-16T02:42:12;98357.16;;;15.70;100.00
70815;BME280;58428;49.478;10.986;2022-10-16T02:44:37;98357.94;;;15.70;100.00
70815;BME280;58428;49.478;10.986;2022-10-16T02:47:02;98347.38;;;15.69;100.00
70815;BME280;58428;49.478;10.986;2022-10-16T02:49:28;98348.53;;;15.68;100.00
70815;BME280;58428;49.478;10.986;2022-10-16T02:51:55;98347.38;;;15.69;100.00
70815;BME280;58428;49.478;10.986;2022-10-16T02:54:22;98347.66;;;15.64;100.00
70815;BME280;58428;49.478;10.986;2022-10-16T02:56:48;98356.84;;;15.56;100.00
70815;BME280;58428;49.478;10.986;2022-10-16T02:59:14;98361.94;;;15.57;100.00
70815;BME280;58428;49.478;10.986;2022-10-16T03:01:39;98366.19;;;15.55;100.00
70815;BME280;58428;49.478;10.986;2022-10-16T03:04:04;98361.84;;;15.54;100.00
70815;BME280;58428;49.478;10.986;2022-10-16T03:06:29;98360.38;;;15.56;100.00
70815;BME280;58428;49.478;10.986;2022-10-16T03:08:55;98372.00;;;15.53;100.00
70815;BME280;58428;49.478;10.986;2022-10-16T03:11:20;98377.00;;;15.51;100.00
70815;BME280;58428;49.478;10.986;2022-10-16T03:13:46;98373.06;;;15.49;100.00
70815;BME280;58428;49.478;10.986;2022-10-16T03:16:11;98360.94;;;15.47;100.00
70815;BME280;58428;49.478;10.986;2022-10-16T03:18:37;98361.22;;;15.42;100.00
70815;BME280;58428;49.478;10.986;2022-10-16T03:21:02;98367.19;;;15.47;100.00
70815;BME280;58428;49.478;10.986;2022-10-16T03:23:27;98363.94;;;15.42;100.00
70815;BME280;58428;49.478;10.986;2022-10-16T03:25:53;98365.81;;;15.38;100.00
70815;BME280;58428;49.478;10.986;2022-10-16T03:28:19;98361.06;;;15.35;100.00
70815;BME280;58428;49.478;10.986;2022-10-16T03:30:44;98357.47;;;15.31;100.00
70815;BME280;58428;49.478;10.986;2022-10-16T03:33:10;98359.84;;;15.32;100.00
70815;BME280;58428;49.478;10.986;2022-10-16T03:35:35;98369.25;;;15.35;100.00
70815;BME280;58428;49.478;10.986;2022-10-16T03:38:01;98372.97;;;15.27;100.00
70815;BME280;58428;49.478;10.986;2022-10-16T03:40:28;98376.41;;;15.24;100.00
70815;BME280;58428;49.478;10.986;2022-10-16T03:42:54;98371.75;;;15.24;100.00
70815;BME280;58428;49.478;10.986;2022-10-16T03:45:23;98379.56;;;15.26;100.00
70815;BME280;58428;49.478;10.986;2022-10-16T03:47:48;98371.75;;;15.24;100.00
70815;BME280;58428;49.478;10.986;2022-10-16T03:50:13;98381.53;;;15.25;100.00
70815;BME280;58428;49.478;10.986;2022-10-16T03:52:39;98379.06;;;15.20;100.00
70815;BME280;58428;49.478;10.986;2022-10-16T03:55:06;98379.94;;;15.24;100.00
70815;BME280;58428;49.478;10.986;2022-10-16T03:57:31;98378.38;;;15.23;100.00
70815;BME280;58428;49.478;10.986;2022-10-16T03:59:58;98389.19;;;15.20;100.00
70815;BME280;58428;49.478;10.986;2022-10-16T04:02:24;98381.34;;;15.18;100.00
70815;BME280;58428;49.478;10.986;2022-10-16T04:04:49;98382.13;;;15.19;100.00
70815;BME280;58428;49.478;10.986;2022-10-16T04:07:14;98382.50;;;15.17;100.00
70815;BME280;58428;49.478;10.986;2022-10-16T04:09:40;98390.75;;;15.21;100.00
70815;BME280;58428;49.478;10.986;2022-10-16T04:12:05;98395.06;;;15.22;100.00
70815;BME280;58428;49.478;10.986;2022-10-16T04:14:30;98396.28;;;15.24;100.00
70815;BME280;58428;49.478;10.986;2022-10-16T04:16:57;98395.59;;;15.27;100.00
70815;BME280;58428;49.478;10.986;2022-10-16T04:19:22;98403.66;;;15.24;100.00
70815;BME280;58428;49.478;10.986;2022-10-16T04:21:49;98400.59;;;15.25;100.00
70815;BME280;58428;49.478;10.986;2022-10-16T04:24:16;98396.19;;;15.21;100.00
70815;BME280;58428;49.478;10.986;2022-10-16T04:26:43;98395.06;;;15.22;100.00
70815;BME280;58428;49.478;10.986;2022-10-16T04:29:09;98391.19;;;15.23;100.00
70815;BME280;58428;49.478;10.986;2022-10-16T04:31:34;98400.44;;;15.18;100.00
70815;BME280;58428;49.478;10.986;2022-10-16T04:33:59;98393.47;;;15.21;100.00
70815;BME280;58428;49.478;10.986;2022-10-16T04:36:25;98394.28;;;15.21;100.00
70815;BME280;58428;49.478;10.986;2022-10-16T04:38:50;98398.75;;;15.29;100.00
70815;BME280;58428;49.478;10.986;2022-10-16T04:41:15;98394.75;;;15.27;100.00
70815;BME280;58428;49.478;10.986;2022-10-16T04:43:41;98396.78;;;15.30;100.00
70815;BME280;58428;49.478;10.986;2022-10-16T04:46:06;98399.00;;;15.24;100.00
70815;BME280;58428;49.478;10.986;2022-10-16T04:48:31;98387.31;;;15.24;100.00
70815;BME280;58428;49.478;10.986;2022-10-16T04:50:58;98389.25;;;15.23;100.00
70815;BME280;58428;49.478;10.986;2022-10-16T04:53:24;98396.00;;;15.29;100.00
70815;BME280;58428;49.478;10.986;2022-10-16T04:55:50;98394.41;;;15.28;100.00
70815;BME280;58428;49.478;10.986;2022-10-16T04:58:16;98404.44;;;15.24;100.00
70815;BME280;58428;49.478;10.986;2022-10-16T05:00:42;98399.44;;;15.26;100.00
70815;BME280;58428;49.478;10.986;2022-10-16T05:03:08;98403.91;;;15.34;100.00
70815;BME280;58428;49.478;10.986;2022-10-16T05:05:35;98400.81;;;15.36;100.00
70815;BME280;58428;49.478;10.986;2022-10-16T05:08:02;98401.94;;;15.35;100.00
70815;BME280;58428;49.478;10.986;2022-10-16T05:10:27;98401.38;;;15.26;100.00
70815;BME280;58428;49.478;10.986;2022-10-16T05:12:53;98405.19;;;15.21;100.00
70815;BME280;58428;49.478;10.986;2022-10-16T05:15:18;98403.16;;;15.18;100.00
70815;BME280;58428;49.478;10.986;2022-10-16T05:17:44;98410.34;;;15.11;100.00
70815;BME280;58428;49.478;10.986;2022-10-16T05:20:12;98413.69;;;15.05;100.00
70815;BME280;58428;49.478;10.986;2022-10-16T05:22:37;98414.84;;;15.04;100.00
70815;BME280;58428;49.478;10.986;2022-10-16T05:25:03;98417.84;;;14.99;100.00
70815;BME280;58428;49.478;10.986;2022-10-16T05:27:28;98422.94;;;15.00;100.00
70815;BME280;58428;49.478;10.986;2022-10-16T05:29:54;98425.94;;;14.95;100.00
70815;BME280;58428;49.478;10.986;2022-10-16T05:32:19;98426.66;;;14.92;100.00
70815;BME280;58428;49.478;10.986;2022-10-16T05:34:46;98430.16;;;14.93;100.00
70815;BME280;58428;49.478;10.986;2022-10-16T05:37:12;98444.22;;;14.95;100.00
70815;BME280;58428;49.478;10.986;2022-10-16T05:39:40;98451.22;;;14.96;100.00
70815;BME280;58428;49.478;10.986;2022-10-16T05:42:06;98450.88;;;14.97;100.00
70815;BME280;58428;49.478;10.986;2022-10-16T05:44:33;98455.66;;;15.00;100.00
70815;BME280;58428;49.478;10.986;2022-10-16T05:46:58;98456.53;;;15.04;100.00
70815;BME280;58428;49.478;10.986;2022-10-16T05:49:24;98468.63;;;15.07;100.00
70815;BME280;58428;49.478;10.986;2022-10-16T05:51:51;98460.13;;;15.08;100.00
70815;BME280;58428;49.478;10.986;2022-10-16T05:54:18;98466.44;;;15.12;100.00
70815;BME280;58428;49.478;10.986;2022-10-16T05:56:43;98453.72;;;15.16;100.00
70815;BME280;58428;49.478;10.986;2022-10-16T05:59:10;98462.25;;;15.14;100.00
70815;BME280;58428;49.478;10.986;2022-10-16T06:01:36;98460.66;;;15.13;100.00
70815;BME280;58428;49.478;10.986;2022-10-16T06:04:02;98457.75;;;15.22;100.00
70815;BME280;58428;49.478;10.986;2022-10-16T06:06:28;98454.31;;;15.25;100.00
70815;BME280;58428;49.478;10.986;2022-10-16T06:08:56;98468.38;;;15.27;100.00
70815;BME280;58428;49.478;10.986;2022-10-16T06:11:27;98474.63;;;15.27;100.00
70815;BME280;58428;49.478;10.986;2022-10-16T06:13:57;98472.06;;;15.34;100.00
70815;BME280;58428;49.478;10.986;2022-10-16T06:16:24;98470.06;;;15.31;100.00
70815;BME280;58428;49.478;10.986;2022-10-16T06:18:51;98471.97;;;15.31;100.00
70815;BME280;58428;49.478;10.986;2022-10-16T06:21:19;98477.50;;;15.34;100.00
70815;BME280;58428;49.478;10.986;2022-10-16T06:23:45;98473.56;;;15.32;100.00
70815;BME280;58428;49.478;10.986;2022-10-16T06:26:16;98467.63;;;15.45;100.00
70815;BME280;58428;49.478;10.986;2022-10-16T06:28:42;98473.25;;;15.52;100.00
70815;BME280;58428;49.478;10.986;2022-10-16T06:31:08;98473.09;;;15.45;100.00
70815;BME280;58428;49.478;10.986;2022-10-16T06:33:35;98481.53;;;15.40;100.00
70815;BME280;58428;49.478;10.986;2022-10-16T06:36:04;98479.31;;;15.46;100.00
70815;BME280;58428;49.478;10.986;2022-10-16T06:38:32;98487.31;;;15.54;100.00
70815;BME280;58428;49.478;10.986;2022-10-16T06:40:58;98484.31;;;15.59;100.00
70815;BME280;58428;49.478;10.986;2022-10-16T06:43:25;98471.13;;;15.61;100.00
70815;BME280;58428;49.478;10.986;2022-10-16T06:45:54;98477.09;;;15.66;100.00
70815;BME280;58428;49.478;10.986;2022-10-16T06:48:20;98475.06;;;15.63;100.00
70815;BME280;58428;49.478;10.986;2022-10-16T06:53:32;98482.25;;;15.71;100.00
70815;BME280;58428;49.478;10.986;2022-10-16T06:56:07;98497.41;;;15.69;100.00
70815;BME280;58428;49.478;10.986;2022-10-16T06:58:33;98509.00;;;15.66;100.00
70815;BME280;58428;49.478;10.986;2022-10-16T07:00:59;98514.03;;;15.64;100.00
70815;BME280;58428;49.478;10.986;2022-10-16T07:03:24;98508.56;;;15.64;100.00
70815;BME280;58428;49.478;10.986;2022-10-16T07:05:49;98517.56;;;15.64;100.00
70815;BME280;58428;49.478;10.986;2022-10-16T07:08:15;98530.47;;;15.67;100.00
70815;BME280;58428;49.478;10.986;2022-10-16T07:10:40;98532.06;;;15.68;100.00
70815;BME280;58428;49.478;10.986;2022-10-16T07:13:09;98540.94;;;15.65;100.00
70815;BME280;58428;49.478;10.986;2022-10-16T07:15:38;98539.97;;;15.73;100.00
70815;BME280;58428;49.478;10.986;2022-10-16T07:18:03;98536.97;;;15.78;100.00
70815;BME280;58428;49.478;10.986;2022-10-16T07:20:28;98540.91;;;15.81;100.00
70815;BME280;58428;49.478;10.986;2022-10-16T07:22:54;98548.66;;;15.79;100.00
70815;BME280;58428;49.478;10.986;2022-10-16T07:25:19;98568.72;;;15.86;100.00
70815;BME280;58428;49.478;10.986;2022-10-16T07:27:44;98552.34;;;15.86;100.00
70815;BME280;58428;49.478;10.986;2022-10-16T07:30:10;98562.34;;;15.97;100.00
70815;BME280;58428;49.478;10.986;2022-10-16T07:32:38;98572.09;;;15.98;100.00
70815;BME280;58428;49.478;10.986;2022-10-16T07:35:04;98577.38;;;16.07;100.00
70815;BME280;58428;49.478;10.986;2022-10-16T07:37:29;98575.22;;;16.16;100.00
70815;BME280;58428;49.478;10.986;2022-10-16T07:39:55;98569.59;;;16.24;100.00
70815;BME280;58428;49.478;10.986;2022-10-16T07:42:21;98564.50;;;16.22;100.00
70815;BME280;58428;49.478;10.986;2022-10-16T07:44:46;98556.75;;;16.24;100.00
70815;BME280;58428;49.478;10.986;2022-10-16T07:47:11;98551.41;;;16.31;100.00
70815;BME280;58428;49.478;10.986;2022-10-16T07:49:38;98556.75;;;16.43;100.00
70815;BME280;58428;49.478;10.986;2022-10-16T07:52:03;98565.84;;;16.51;100.00
70815;BME280;58428;49.478;10.986;2022-10-16T07:54:28;98564.28;;;16.50;100.00
70815;BME280;58428;49.478;10.986;2022-10-16T07:56:54;98569.44;;;16.55;100.00
70815;BME280;58428;49.478;10.986;2022-10-16T07:59:19;98570.44;;;16.47;100.00
70815;BME280;58428;49.478;10.986;2022-10-16T08:01:45;98576.84;;;16.54;100.00
70815;BME280;58428;49.478;10.986;2022-10-16T08:04:11;98572.59;;;16.57;100.00
70815;BME280;58428;49.478;10.986;2022-10-16T08:06:37;98587.69;;;16.51;100.00
70815;BME280;58428;49.478;10.986;2022-10-16T08:09:03;98587.06;;;16.57;100.00
70815;BME280;58428;49.478;10.986;2022-10-16T08:11:29;98590.59;;;16.58;100.00
70815;BME280;58428;49.478;10.986;2022-10-16T08:13:54;98592.47;;;16.54;100.00
70815;BME280;58428;49.478;10.986;2022-10-16T08:16:19;98595.28;;;16.57;100.00
70815;BME280;58428;49.478;10.986;2022-10-16T08:18:45;98599.28;;;16.63;100.00
70815;BME280;58428;49.478;10.986;2022-10-16T08:21:16;98598.28;;;16.71;100.00
70815;BME280;58428;49.478;10.986;2022-10-16T08:23:43;98595.31;;;16.79;100.00
70815;BME280;58428;49.478;10.986;2022-10-16T08:26:12;98590.03;;;16.90;100.00
70815;BME280;58428;49.478;10.986;2022-10-16T08:28:39;98582.59;;;17.09;100.00
70815;BME280;58428;49.478;10.986;2022-10-16T08:31:13;98581.31;;;17.22;100.00
70815;BME280;58428;49.478;10.986;2022-10-16T08:33:40;98587.69;;;17.29;100.00
70815;BME280;58428;49.478;10.986;2022-10-16T08:36:07;98591.94;;;17.27;100.00
70815;BME280;58428;49.478;10.986;2022-10-16T08:38:34;98597.13;;;17.54;100.00
70815;BME280;58428;49.478;10.986;2022-10-16T08:48:48;98599.72;;;17.95;100.00
70815;BME280;58428;49.478;10.986;2022-10-16T08:51:26;98608.00;;;18.02;100.00
70815;BME280;58428;49.478;10.986;2022-10-16T08:54:03;98610.81;;;18.05;100.00
70815;BME280;58428;49.478;10.986;2022-10-16T08:56:29;98611.56;;;18.02;100.00
70815;BME280;58428;49.478;10.986;2022-10-16T08:58:55;98604.91;;;18.03;100.00
70815;BME280;58428;49.478;10.986;2022-10-16T09:01:23;98598.13;;;17.94;100.00
70815;BME280;58428;49.478;10.986;2022-10-16T09:06:50;98605.25;;;17.98;100.00
70815;BME280;58428;49.478;10.986;2022-10-16T09:12:19;98611.75;;;18.12;100.00
70815;BME280;58428;49.478;10.986;2022-10-16T09:17:35;98607.25;;;18.27;100.00
70815;BME280;58428;49.478;10.986;2022-10-16T09:23:19;98615.69;;;18.44;100.00
70815;BME280;58428;49.478;10.986;2022-10-16T09:25:48;98619.31;;;18.51;100.00
70815;BME280;58428;49.478;10.986;2022-10-16T09:28:16;98624.44;;;18.53;100.00
70815;BME280;58428;49.478;10.986;2022-10-16T09:30:42;98625.34;;;18.64;100.00
70815;BME280;58428;49.478;10.986;2022-10-16T09:33:09;98627.25;;;18.60;100.00
70815;BME280;58428;49.478;10.986;2022-10-16T09:38:02;98635.03;;;18.54;100.00
70815;BME280;58428;49.478;10.986;2022-10-16T09:40:36;98638.09;;;18.49;100.00
70815;BME280;58428;49.478;10.986;2022-10-16T09:45:31;98633.16;;;18.62;100.00
70815;BME280;58428;49.478;10.986;2022-10-16T09:47:57;98633.63;;;18.67;100.00
70815;BME280;58428;49.478;10.986;2022-10-16T09:50:28;98630.56;;;18.72;100.00
70815;BME280;58428;49.478;10.986;2022-10-16T09:53:04;98634.97;;;18.80;100.00
70815;BME280;58428;49.478;10.986;2022-10-16T09:55:30;98627.16;;;18.82;100.00
70815;BME280;58428;49.478;10.986;2022-10-16T09:57:57;98633.41;;;18.82;100.00
70815;BME280;58428;49.478;10.986;2022-10-16T10:00:24;98641.66;;;18.82;100.00
70815;BME280;58428;49.478;10.986;2022-10-16T10:02:49;98650.47;;;18.69;100.00
70815;BME280;58428;49.478;10.986;2022-10-16T10:05:21;98646.72;;;18.80;100.00
70815;BME280;58428;49.478;10.986;2022-10-16T10:07:53;98646.41;;;18.89;100.00
70815;BME280;58428;49.478;10.986;2022-10-16T10:10:22;98643.97;;;19.10;100.00
70815;BME280;58428;49.478;10.986;2022-10-16T10:12:48;98639.06;;;19.29;100.00
70815;BME280;58428;49.478;10.986;2022-10-16T10:15:16;98630.56;;;19.41;100.00
70815;BME280;58428;49.478;10.986;2022-10-16T10:17:56;98640.09;;;19.54;100.00
70815;BME280;58428;49.478;10.986;2022-10-16T10:20:33;98642.91;;;19.57;100.00
70815;BME280;58428;49.478;10.986;2022-10-16T10:29:01;98644.81;;;19.56;100.00
70815;BME280;58428;49.478;10.986;2022-10-16T10:40:09;98658.72;;;20.20;100.00
70815;BME280;58428;49.478;10.986;2022-10-16T10:45:44;98643.94;;;20.38;100.00
70815;BME280;58428;49.478;10.986;2022-10-16T10:57:15;98647.78;;;20.91;100.00
70815;BME280;58428;49.478;10.986;2022-10-16T11:06:08;98650.81;;;20.72;100.00
70815;BME280;58428;49.478;10.986;2022-10-16T11:08:40;98648.91;;;20.79;100.00
70815;BME280;58428;49.478;10.986;2022-10-16T11:11:24;98646.16;;;20.79;100.00
70815;BME280;58428;49.478;10.986;2022-10-16T11:13:57;98643.00;;;20.77;100.00
70815;BME280;58428;49.478;10.986;2022-10-16T11:16:28;98650.34;;;20.60;100.00
70815;BME280;58428;49.478;10.986;2022-10-16T11:21:30;98651.34;;;20.98;100.00
70815;BME280;58428;49.478;10.986;2022-10-16T11:24:20;98650.59;;;21.15;100.00
70815;BME280;58428;49.478;10.986;2022-10-16T11:26:52;98658.09;;;21.25;100.00
70815;BME280;58428;49.478;10.986;2022-10-16T11:29:25;98653.81;;;21.34;100.00
70815;BME280;58428;49.478;10.986;2022-10-16T11:31:56;98661.63;;;21.22;100.00
70815;BME280;58428;49.478;10.986;2022-10-16T11:34:42;98654.94;;;21.19;100.00
70815;BME280;58428;49.478;10.986;2022-10-16T11:37:39;98647.47;;;21.20;100.00
70815;BME280;58428;49.478;10.986;2022-10-16T11:40:28;98653.00;;;21.20;100.00
70815;BME280;58428;49.478;10.986;2022-10-16T11:42:59;98656.94;;;21.29;100.00
70815;BME280;58428;49.478;10.986;2022-10-16T11:45:43;98653.81;;;21.27;100.00
70815;BME280;58428;49.478;10.986;2022-10-16T11:48:36;98655.78;;;21.37;100.00
70815;BME280;58428;49.478;10.986;2022-10-16T11:51:16;98664.88;;;21.41;100.00
70815;BME280;58428;49.478;10.986;2022-10-16T11:53:56;98666.78;;;21.34;100.00
70815;BME280;58428;49.478;10.986;2022-10-16T11:56:23;98667.13;;;21.15;100.00
70815;BME280;58428;49.478;10.986;2022-10-16T11:59:33;98667.44;;;21.00;100.00
70815;BME280;58428;49.478;10.986;2022-10-16T12:04:49;98671.38;;;20.95;100.00
70815;BME280;58428;49.478;10.986;2022-10-16T12:07:22;98665.16;;;21.12;100.00
70815;BME280;58428;49.478;10.986;2022-10-16T12:09:49;98662.38;;;21.15;100.00
70815;BME280;58428;49.478;10.986;2022-10-16T12:12:39;98658.09;;;21.25;100.00
70815;BME280;58428;49.478;10.986;2022-10-16T12:15:26;98655.75;;;21.23;100.00
70815;BME280;58428;49.478;10.986;2022-10-16T12:17:53;98656.53;;;21.31;100.00
70815;BME280;58428;49.478;10.986;2022-10-16T12:20:24;98657.81;;;21.50;100.00
70815;BME280;58428;49.478;10.986;2022-10-16T12:25:30;98648.00;;;21.67;100.00
70815;BME280;58428;49.478;10.986;2022-10-16T12:28:04;98645.63;;;21.65;100.00
70815;BME280;58428;49.478;10.986;2022-10-16T12:30:33;98645.59;;;21.48;100.00
70815;BME280;58428;49.478;10.986;2022-10-16T12:33:29;98644.38;;;21.35;100.00
70815;BME280;58428;49.478;10.986;2022-10-16T12:35:56;98646.34;;;21.31;100.00
70815;BME280;58428;49.478;10.986;2022-10-16T12:38:37;98647.53;;;21.41;100.00
70815;BME280;58428;49.478;10.986;2022-10-16T12:41:08;98657.00;;;21.46;100.00
70815;BME280;58428;49.478;10.986;2022-10-16T12:43:46;98654.59;;;21.38;100.00
70815;BME280;58428;49.478;10.986;2022-10-16T12:48:42;98656.13;;;21.22;100.00
70815;BME280;58428;49.478;10.986;2022-10-16T12:51:35;98653.34;;;21.11;100.00
70815;BME280;58428;49.478;10.986;2022-10-16T12:54:15;98651.41;;;21.12;100.00
70815;BME280;58428;49.478;10.986;2022-10-16T13:13:53;98660.59;;;22.13;100.00
70815;BME280;58428;49.478;10.986;2022-10-16T13:27:59;98656.16;;;22.77;100.00
70815;BME280;58428;49.478;10.986;2022-10-16T13:30:30;98657.38;;;22.66;100.00
70815;BME280;58428;49.478;10.986;2022-10-16T13:33:36;98660.16;;;22.45;100.00
70815;BME280;58428;49.478;10.986;2022-10-16T13:36:04;98663.75;;;22.42;100.00
70815;BME280;58428;49.478;10.986;2022-10-16T13:38:59;98667.31;;;22.32;100.00
70815;BME280;58428;49.478;10.986;2022-10-16T13:41:26;98672.81;;;22.22;100.00
70815;BME280;58428;49.478;10.986;2022-10-16T13:43:52;98670.44;;;22.27;100.00
70815;BME280;58428;49.478;10.986;2022-10-16T13:46:25;98677.56;;;22.28;100.00
70815;BME280;58428;49.478;10.986;2022-10-16T13:49:19;98677.94;;;22.27;100.00
70815;BME280;58428;49.478;10.986;2022-10-16T13:51:59;98674.38;;;22.16;100.00
70815;BME280;58428;49.478;10.986;2022-10-16T13:54:26;98677.16;;;22.16;100.00
70815;BME280;58428;49.478;10.986;2022-10-16T13:56:53;98674.38;;;22.13;100.00
70815;BME280;58428;49.478;10.986;2022-10-16T13:59:43;98679.09;;;22.09;100.00
70815;BME280;58428;49.478;10.986;2022-10-16T14:02:25;98688.56;;;22.11;100.00
70815;BME280;58428;49.478;10.986;2022-10-16T14:04:52;98683.03;;;22.11;100.00
70815;BME280;58428;49.478;10.986;2022-10-16T14:07:29;98681.88;;;22.09;100.00
70815;BME280;58428;49.478;10.986;2022-10-16T14:10:22;98690.53;;;22.11;100.00
70815;BME280;58428;49.478;10.986;2022-10-16T14:13:03;98688.56;;;22.11;100.00
70815;BME280;58428;49.478;10.986;2022-10-16T14:15:35;98691.69;;;22.06;100.00
70815;BME280;58428;49.478;10.986;2022-10-16T14:18:02;98685.78;;;21.94;100.00
70815;BME280;58428;49.478;10.986;2022-10-16T14:20:32;98685.78;;;21.94;100.00
70815;BME280;58428;49.478;10.986;2022-10-16T14:23:19;98685.41;;;21.95;100.00
70815;BME280;58428;49.478;10.986;2022-10-16T14:25:46;98684.59;;;21.95;100.00
70815;BME280;58428;49.478;10.986;2022-10-16T14:28:22;98683.81;;;21.87;100.00
70815;BME280;58428;49.478;10.986;2022-10-16T14:38:25;98680.59;;;21.44;100.00
70815;BME280;58428;49.478;10.986;2022-10-16T14:40:51;98679.34;;;21.35;100.00
70815;BME280;58428;49.478;10.986;2022-10-16T14:43:26;98690.72;;;21.23;100.00
70815;BME280;58428;49.478;10.986;2022-10-16T14:45:56;98685.22;;;21.23;100.00
70815;BME280;58428;49.478;10.986;2022-10-16T14:48:24;98697.03;;;21.27;100.00
70815;BME280;58428;49.478;10.986;2022-10-16T14:50:50;98693.50;;;21.30;100.00
70815;BME280;58428;49.478;10.986;2022-10-16T14:53:15;98697.81;;;21.31;100.00
70815;BME280;58428;49.478;10.986;2022-10-16T14:55:42;98695.88;;;21.31;100.00
70815;BME280;58428;49.478;10.986;2022-10-16T14:58:21;98695.88;;;21.31;100.00
70815;BME280;58428;49.478;10.986;2022-10-16T15:00:48;98691.53;;;21.27;100.00